sensor_id;sensor_type;location;lat;lon;timestamp;pressure;altitude;pressure_sealevel;temperature;humidity
66742;BME280;53654;54.152;19.432;2024-01-16T00:01:29;99323.52;;;-1.30;61.85
66742;BME280;53654;54.152;19.432;2024-01-16T00:03:57;99324.39;;;-1.29;61.61
66742;BME280;53654;54.152;19.432;2024-01-16T00:06:25;99333.44;;;-1.30;61.47
66742;BME280;53654;54.152;19.432;2024-01-16T00:08:53;99340.79;;;-1.31;61.46
66742;BME280;53654;54.152;19.432;2024-01-16T00:11:21;99349.84;;;-1.32;61.02
66742;BME280;53654;54.152;19.432;2024-01-16T00:13:49;99352.89;;;-1.34;60.68
66742;BME280;53654;54.152;19.432;2024-01-16T00:16:17;99360.73;;;-1.35;60.21
66742;BME280;53654;54.152;19.432;2024-01-16T00:18:46;99364.63;;;-1.37;60.45
66742;BME280;53654;54.152;19.432;2024-01-16T00:21:15;99369.45;;;-1.35;60.74
66742;BME280;53654;54.152;19.432;2024-01-16T00:23:43;99372.70;;;-1.35;60.79
66742;BME280;53654;54.152;19.432;2024-01-16T00:26:20;99381.58;;;-1.36;60.84
66742;BME280;53654;54.152;19.432;2024-01-16T00:28:49;99386.66;;;-1.39;60.97
66742;BME280;53654;54.152;19.432;2024-01-16T00:31:18;99390.39;;;-1.42;60.87
66742;BME280;53654;54.152;19.432;2024-01-16T00:33:47;99390.89;;;-1.42;61.11
66742;BME280;53654;54.152;19.432;2024-01-16T00:36:15;99394.27;;;-1.45;60.83
66742;BME280;53654;54.152;19.432;2024-01-16T00:38:43;99399.73;;;-1.45;60.59
66742;BME280;53654;54.152;19.432;2024-01-16T00:41:12;99402.77;;;-1.47;60.10
66742;BME280;53654;54.152;19.432;2024-01-16T00:43:43;99413.48;;;-1.51;60.53
66742;BME280;53654;54.152;19.432;2024-01-16T00:46:11;99411.56;;;-1.53;60.88
66742;BME280;53654;54.152;19.432;2024-01-16T00:48:40;99425.58;;;-1.53;60.86
66742;BME280;53654;54.152;19.432;2024-01-16T00:51:08;99426.72;;;-1.56;60.41
66742;BME280;53654;54.152;19.432;2024-01-16T00:53:43;99427.38;;;-1.57;60.26
66742;BME280;53654;54.152;19.432;2024-01-16T00:56:11;99429.39;;;-1.60;60.10
66742;BME280;53654;54.152;19.432;2024-01-16T00:58:40;99438.14;;;-1.58;59.42
66742;BME280;53654;54.152;19.432;2024-01-16T01:01:08;99443.31;;;-1.55;59.00
66742;BME280;53654;54.152;19.432;2024-01-16T01:03:37;99453.48;;;-1.52;58.90
66742;BME280;53654;54.152;19.432;2024-01-16T01:06:05;99458.16;;;-1.49;58.86
66742;BME280;53654;54.152;19.432;2024-01-16T01:08:34;99456.48;;;-1.47;59.62
66742;BME280;53654;54.152;19.432;2024-01-16T01:11:03;99463.00;;;-1.46;60.17
66742;BME280;53654;54.152;19.432;2024-01-16T01:13:32;99469.16;;;-1.46;60.40
66742;BME280;53654;54.152;19.432;2024-01-16T01:16:00;99470.00;;;-1.47;60.64
66742;BME280;53654;54.152;19.432;2024-01-16T01:18:28;99474.40;;;-1.49;60.77
66742;BME280;53654;54.152;19.432;2024-01-16T01:20:57;99486.48;;;-1.52;61.27
66742;BME280;53654;54.152;19.432;2024-01-16T01:23:25;99489.85;;;-1.55;61.80
66742;BME280;53654;54.152;19.432;2024-01-16T01:25:53;99486.03;;;-1.58;62.06
66742;BME280;53654;54.152;19.432;2024-01-16T01:28:21;99490.45;;;-1.59;62.40
66742;BME280;53654;54.152;19.432;2024-01-16T01:30:50;99490.24;;;-1.61;62.65
66742;BME280;53654;54.152;19.432;2024-01-16T01:33:18;99498.06;;;-1.64;62.58
66742;BME280;53654;54.152;19.432;2024-01-16T01:35:46;99506.76;;;-1.65;62.08
66742;BME280;53654;54.152;19.432;2024-01-16T01:38:14;99514.58;;;-1.67;61.99
66742;BME280;53654;54.152;19.432;2024-01-16T01:40:42;99517.47;;;-1.68;61.98
66742;BME280;53654;54.152;19.432;2024-01-16T01:43:22;99521.58;;;-1.67;62.14
66742;BME280;53654;54.152;19.432;2024-01-16T01:48:32;99535.93;;;-1.68;61.57
66742;BME280;53654;54.152;19.432;2024-01-16T01:51:01;99535.77;;;-1.67;61.30
66742;BME280;53654;54.152;19.432;2024-01-16T01:53:31;99541.20;;;-1.69;61.16
66742;BME280;53654;54.152;19.432;2024-01-16T01:56:03;99541.27;;;-1.66;61.11
66742;BME280;53654;54.152;19.432;2024-01-16T01:58:34;99543.48;;;-1.67;61.12
66742;BME280;53654;54.152;19.432;2024-01-16T02:01:05;99545.05;;;-1.65;61.36
66742;BME280;53654;54.152;19.432;2024-01-16T02:03:40;99545.73;;;-1.66;61.65
66742;BME280;53654;54.152;19.432;2024-01-16T02:06:10;99549.27;;;-1.68;61.70
66742;BME280;53654;54.152;19.432;2024-01-16T02:08:40;99553.35;;;-1.69;61.68
66742;BME280;53654;54.152;19.432;2024-01-16T02:11:08;99558.08;;;-1.72;61.44
66742;BME280;53654;54.152;19.432;2024-01-16T02:13:37;99564.15;;;-1.76;61.46
66742;BME280;53654;54.152;19.432;2024-01-16T02:16:05;99569.37;;;-1.79;61.44
66742;BME280;53654;54.152;19.432;2024-01-16T02:18:44;99575.02;;;-1.87;61.43
66742;BME280;53654;54.152;19.432;2024-01-16T02:21:17;99578.38;;;-1.89;61.80
66742;BME280;53654;54.152;19.432;2024-01-16T02:23:46;99582.86;;;-1.95;62.65
66742;BME280;53654;54.152;19.432;2024-01-16T02:26:14;99586.51;;;-2.00;62.95
66742;BME280;53654;54.152;19.432;2024-01-16T02:28:46;99592.45;;;-2.02;63.18
66742;BME280;53654;54.152;19.432;2024-01-16T02:31:15;99591.41;;;-2.02;62.63
66742;BME280;53654;54.152;19.432;2024-01-16T02:33:43;99599.34;;;-1.99;62.68
66742;BME280;53654;54.152;19.432;2024-01-16T02:36:11;99600.56;;;-1.98;62.52
66742;BME280;53654;54.152;19.432;2024-01-16T02:38:39;99604.21;;;-1.96;62.43
66742;BME280;53654;54.152;19.432;2024-01-16T02:41:13;99609.39;;;-1.93;62.61
66742;BME280;53654;54.152;19.432;2024-01-16T02:43:42;99617.30;;;-1.91;62.23
66742;BME280;53654;54.152;19.432;2024-01-16T02:46:10;99622.06;;;-1.92;61.76
66742;BME280;53654;54.152;19.432;2024-01-16T02:48:38;99626.14;;;-1.94;61.62
66742;BME280;53654;54.152;19.432;2024-01-16T02:51:07;99630.50;;;-1.97;61.46
66742;BME280;53654;54.152;19.432;2024-01-16T02:53:36;99634.05;;;-1.98;61.41
66742;BME280;53654;54.152;19.432;2024-01-16T02:56:04;99637.47;;;-1.99;61.33
66742;BME280;53654;54.152;19.432;2024-01-16T02:58:32;99638.39;;;-2.03;61.24
66742;BME280;53654;54.152;19.432;2024-01-16T03:01:00;99642.02;;;-2.08;61.27
66742;BME280;53654;54.152;19.432;2024-01-16T03:03:29;99643.34;;;-2.10;61.23
66742;BME280;53654;54.152;19.432;2024-01-16T03:05:57;99644.64;;;-2.13;60.96
66742;BME280;53654;54.152;19.432;2024-01-16T03:08:26;99656.06;;;-2.20;61.06
66742;BME280;53654;54.152;19.432;2024-01-16T03:10:54;99656.95;;;-2.26;61.29
66742;BME280;53654;54.152;19.432;2024-01-16T03:13:22;99667.60;;;-2.31;61.31
66742;BME280;53654;54.152;19.432;2024-01-16T03:15:51;99670.91;;;-2.35;61.26
66742;BME280;53654;54.152;19.432;2024-01-16T03:18:19;99669.74;;;-2.40;61.32
66742;BME280;53654;54.152;19.432;2024-01-16T03:20:47;99665.16;;;-2.46;61.29
66742;BME280;53654;54.152;19.432;2024-01-16T03:23:15;99669.36;;;-2.48;61.28
66742;BME280;53654;54.152;19.432;2024-01-16T03:25:44;99672.79;;;-2.48;61.42
66742;BME280;53654;54.152;19.432;2024-01-16T03:28:12;99673.21;;;-2.51;61.04
66742;BME280;53654;54.152;19.432;2024-01-16T03:30:41;99679.79;;;-2.54;60.97
66742;BME280;53654;54.152;19.432;2024-01-16T03:33:09;99686.95;;;-2.61;60.89
66742;BME280;53654;54.152;19.432;2024-01-16T03:35:38;99691.95;;;-2.65;60.71
66742;BME280;53654;54.152;19.432;2024-01-16T03:38:06;99693.89;;;-2.69;60.82
66742;BME280;53654;54.152;19.432;2024-01-16T03:40:34;99696.54;;;-2.72;60.98
66742;BME280;53654;54.152;19.432;2024-01-16T03:43:03;99698.98;;;-2.70;60.88
66742;BME280;53654;54.152;19.432;2024-01-16T03:45:33;99700.06;;;-2.68;61.02
66742;BME280;53654;54.152;19.432;2024-01-16T03:48:02;99705.85;;;-2.69;60.60
66742;BME280;53654;54.152;19.432;2024-01-16T03:50:31;99704.90;;;-2.72;60.60
66742;BME280;53654;54.152;19.432;2024-01-16T03:52:59;99706.77;;;-2.73;60.46
66742;BME280;53654;54.152;19.432;2024-01-16T03:55:27;99710.05;;;-2.77;60.10
66742;BME280;53654;54.152;19.432;2024-01-16T03:57:56;99711.54;;;-2.79;60.17
66742;BME280;53654;54.152;19.432;2024-01-16T04:00:24;99714.52;;;-2.82;59.87
66742;BME280;53654;54.152;19.432;2024-01-16T04:02:52;99713.09;;;-2.84;60.12
66742;BME280;53654;54.152;19.432;2024-01-16T04:05:20;99716.30;;;-2.85;60.15
66742;BME280;53654;54.152;19.432;2024-01-16T04:07:48;99719.86;;;-2.86;60.16
66742;BME280;53654;54.152;19.432;2024-01-16T04:10:17;99726.81;;;-2.88;60.28
66742;BME280;53654;54.152;19.432;2024-01-16T04:12:45;99736.29;;;-2.91;60.24
66742;BME280;53654;54.152;19.432;2024-01-16T04:15:13;99740.05;;;-2.91;60.55
66742;BME280;53654;54.152;19.432;2024-01-16T04:17:41;99734.18;;;-2.93;60.35
66742;BME280;53654;54.152;19.432;2024-01-16T04:20:10;99740.30;;;-2.94;60.01
66742;BME280;53654;54.152;19.432;2024-01-16T04:22:38;99744.02;;;-2.96;60.07
66742;BME280;53654;54.152;19.432;2024-01-16T04:25:06;99749.29;;;-2.96;59.95
66742;BME280;53654;54.152;19.432;2024-01-16T04:27:34;99746.06;;;-2.95;60.10
66742;BME280;53654;54.152;19.432;2024-01-16T04:30:02;99747.57;;;-2.96;60.16
66742;BME280;53654;54.152;19.432;2024-01-16T04:32:31;99747.84;;;-2.93;60.26
66742;BME280;53654;54.152;19.432;2024-01-16T04:34:59;99755.90;;;-2.92;60.30
66742;BME280;53654;54.152;19.432;2024-01-16T04:37:27;99760.83;;;-2.93;60.73
66742;BME280;53654;54.152;19.432;2024-01-16T04:39:55;99765.96;;;-2.92;61.02
66742;BME280;53654;54.152;19.432;2024-01-16T04:42:26;99766.91;;;-2.95;60.70
66742;BME280;53654;54.152;19.432;2024-01-16T04:44:54;99768.23;;;-2.96;60.99
66742;BME280;53654;54.152;19.432;2024-01-16T04:47:22;99769.92;;;-2.97;60.87
66742;BME280;53654;54.152;19.432;2024-01-16T04:49:50;99773.35;;;-2.96;60.91
66742;BME280;53654;54.152;19.432;2024-01-16T04:52:19;99777.67;;;-2.94;61.24
66742;BME280;53654;54.152;19.432;2024-01-16T04:54:47;99780.23;;;-2.95;61.16
66742;BME280;53654;54.152;19.432;2024-01-16T04:57:16;99783.48;;;-2.94;61.24
66742;BME280;53654;54.152;19.432;2024-01-16T04:59:44;99788.27;;;-2.94;61.25
66742;BME280;53654;54.152;19.432;2024-01-16T05:02:12;99794.23;;;-2.94;61.33
66742;BME280;53654;54.152;19.432;2024-01-16T05:04:42;99800.90;;;-2.94;61.54
66742;BME280;53654;54.152;19.432;2024-01-16T05:07:10;99800.73;;;-2.93;61.75
66742;BME280;53654;54.152;19.432;2024-01-16T05:09:38;99806.20;;;-2.93;61.76
66742;BME280;53654;54.152;19.432;2024-01-16T05:12:06;99814.56;;;-2.93;61.77
66742;BME280;53654;54.152;19.432;2024-01-16T05:14:34;99821.88;;;-2.94;61.60
66742;BME280;53654;54.152;19.432;2024-01-16T05:17:03;99825.39;;;-2.96;61.24
66742;BME280;53654;54.152;19.432;2024-01-16T05:19:31;99827.64;;;-3.00;61.32
66742;BME280;53654;54.152;19.432;2024-01-16T05:21:59;99834.66;;;-3.05;61.28
66742;BME280;53654;54.152;19.432;2024-01-16T05:24:27;99839.83;;;-3.09;61.28
66742;BME280;53654;54.152;19.432;2024-01-16T05:26:55;99850.52;;;-3.11;61.34
66742;BME280;53654;54.152;19.432;2024-01-16T05:29:23;99855.39;;;-3.13;61.32
66742;BME280;53654;54.152;19.432;2024-01-16T05:31:51;99858.08;;;-3.15;61.43
66742;BME280;53654;54.152;19.432;2024-01-16T05:34:19;99866.33;;;-3.18;61.27
66742;BME280;53654;54.152;19.432;2024-01-16T05:36:48;99867.60;;;-3.20;61.28
66742;BME280;53654;54.152;19.432;2024-01-16T05:39:16;99868.96;;;-3.20;61.38
66742;BME280;53654;54.152;19.432;2024-01-16T05:41:45;99862.69;;;-3.25;61.27
66742;BME280;53654;54.152;19.432;2024-01-16T05:44:13;99867.87;;;-3.23;61.34
66742;BME280;53654;54.152;19.432;2024-01-16T05:46:42;99869.14;;;-3.26;61.05
66742;BME280;53654;54.152;19.432;2024-01-16T05:49:10;99866.23;;;-3.26;61.17
66742;BME280;53654;54.152;19.432;2024-01-16T05:51:38;99861.96;;;-3.26;61.17
66742;BME280;53654;54.152;19.432;2024-01-16T05:54:06;99866.77;;;-3.25;61.12
66742;BME280;53654;54.152;19.432;2024-01-16T05:56:34;99870.98;;;-3.27;61.06
66742;BME280;53654;54.152;19.432;2024-01-16T05:59:02;99882.86;;;-3.29;61.26
66742;BME280;53654;54.152;19.432;2024-01-16T06:01:30;99885.25;;;-3.29;61.15
66742;BME280;53654;54.152;19.432;2024-01-16T06:03:59;99884.83;;;-3.31;60.89
66742;BME280;53654;54.152;19.432;2024-01-16T06:06:27;99887.73;;;-3.31;61.02
66742;BME280;53654;54.152;19.432;2024-01-16T06:08:56;99890.58;;;-3.33;61.12
66742;BME280;53654;54.152;19.432;2024-01-16T06:11:32;99894.72;;;-3.36;60.93
66742;BME280;53654;54.152;19.432;2024-01-16T06:14:01;99899.92;;;-3.39;61.32
66742;BME280;53654;54.152;19.432;2024-01-16T06:16:29;99904.08;;;-3.37;61.19
66742;BME280;53654;54.152;19.432;2024-01-16T06:18:57;99904.51;;;-3.34;60.97
66742;BME280;53654;54.152;19.432;2024-01-16T06:21:25;99906.81;;;-3.32;61.00
66742;BME280;53654;54.152;19.432;2024-01-16T06:23:54;99912.80;;;-3.31;60.51
66742;BME280;53654;54.152;19.432;2024-01-16T06:26:23;99915.73;;;-3.30;60.61
66742;BME280;53654;54.152;19.432;2024-01-16T06:28:51;99917.09;;;-3.30;60.48
66742;BME280;53654;54.152;19.432;2024-01-16T06:31:19;99919.94;;;-3.32;60.20
66742;BME280;53654;54.152;19.432;2024-01-16T06:33:48;99923.81;;;-3.33;60.19
66742;BME280;53654;54.152;19.432;2024-01-16T06:36:16;99923.99;;;-3.33;60.00
66742;BME280;53654;54.152;19.432;2024-01-16T06:38:44;99929.59;;;-3.29;59.50
66742;BME280;53654;54.152;19.432;2024-01-16T06:41:13;99934.63;;;-3.31;59.09
66742;BME280;53654;54.152;19.432;2024-01-16T06:43:41;99941.59;;;-3.32;59.00
66742;BME280;53654;54.152;19.432;2024-01-16T06:46:09;99942.39;;;-3.34;58.97
66742;BME280;53654;54.152;19.432;2024-01-16T06:48:37;99941.80;;;-3.36;59.43
66742;BME280;53654;54.152;19.432;2024-01-16T06:51:06;99942.06;;;-3.38;59.66
66742;BME280;53654;54.152;19.432;2024-01-16T06:53:36;99950.92;;;-3.38;59.47
66742;BME280;53654;54.152;19.432;2024-01-16T06:56:08;99953.81;;;-3.39;59.38
66742;BME280;53654;54.152;19.432;2024-01-16T06:58:36;99958.56;;;-3.39;59.20
66742;BME280;53654;54.152;19.432;2024-01-16T07:01:04;99958.39;;;-3.39;59.11
66742;BME280;53654;54.152;19.432;2024-01-16T07:03:33;99965.09;;;-3.38;59.47
66742;BME280;53654;54.152;19.432;2024-01-16T07:06:01;99971.73;;;-3.33;59.33
66742;BME280;53654;54.152;19.432;2024-01-16T07:08:31;99981.93;;;-3.30;58.79
66742;BME280;53654;54.152;19.432;2024-01-16T07:10:59;99979.46;;;-3.27;58.61
66742;BME280;53654;54.152;19.432;2024-01-16T07:13:27;99984.45;;;-3.26;58.79
66742;BME280;53654;54.152;19.432;2024-01-16T07:15:55;99995.14;;;-3.23;58.73
66742;BME280;53654;54.152;19.432;2024-01-16T07:18:23;99996.70;;;-3.22;58.74
66742;BME280;53654;54.152;19.432;2024-01-16T07:20:51;100000.35;;;-3.20;58.37
66742;BME280;53654;54.152;19.432;2024-01-16T07:23:20;100005.65;;;-3.19;58.62
66742;BME280;53654;54.152;19.432;2024-01-16T07:25:48;100014.03;;;-3.19;58.84
66742;BME280;53654;54.152;19.432;2024-01-16T07:28:16;100022.16;;;-3.16;58.74
66742;BME280;53654;54.152;19.432;2024-01-16T07:30:44;100022.33;;;-3.11;58.72
66742;BME280;53654;54.152;19.432;2024-01-16T07:33:12;100027.09;;;-3.06;58.61
66742;BME280;53654;54.152;19.432;2024-01-16T07:35:41;100027.71;;;-3.03;58.34
66742;BME280;53654;54.152;19.432;2024-01-16T07:38:11;100027.17;;;-2.99;58.21
66742;BME280;53654;54.152;19.432;2024-01-16T07:40:40;100029.31;;;-2.97;58.13
66742;BME280;53654;54.152;19.432;2024-01-16T07:43:08;100035.34;;;-2.95;57.80
66742;BME280;53654;54.152;19.432;2024-01-16T07:45:36;100041.59;;;-2.92;58.21
66742;BME280;53654;54.152;19.432;2024-01-16T07:48:04;100047.33;;;-2.88;58.16
66742;BME280;53654;54.152;19.432;2024-01-16T07:50:32;100053.39;;;-2.86;57.86
66742;BME280;53654;54.152;19.432;2024-01-16T07:53:00;100051.37;;;-2.85;58.13
66742;BME280;53654;54.152;19.432;2024-01-16T07:55:28;100048.38;;;-2.83;57.81
66742;BME280;53654;54.152;19.432;2024-01-16T07:57:56;100054.83;;;-2.79;57.37
66742;BME280;53654;54.152;19.432;2024-01-16T08:00:25;100060.40;;;-2.76;57.48
66742;BME280;53654;54.152;19.432;2024-01-16T08:02:53;100060.48;;;-2.73;57.15
66742;BME280;53654;54.152;19.432;2024-01-16T08:05:21;100060.20;;;-2.71;57.15
66742;BME280;53654;54.152;19.432;2024-01-16T08:07:54;100064.09;;;-2.67;57.23
66742;BME280;53654;54.152;19.432;2024-01-16T08:10:22;100069.70;;;-2.63;57.42
66742;BME280;53654;54.152;19.432;2024-01-16T08:12:50;100078.38;;;-2.59;57.05
66742;BME280;53654;54.152;19.432;2024-01-16T08:15:18;100079.27;;;-2.53;57.00
66742;BME280;53654;54.152;19.432;2024-01-16T08:17:46;100087.02;;;-2.46;57.06
66742;BME280;53654;54.152;19.432;2024-01-16T08:20:15;100097.35;;;-2.38;57.35
66742;BME280;53654;54.152;19.432;2024-01-16T08:22:43;100096.34;;;-2.33;57.37
66742;BME280;53654;54.152;19.432;2024-01-16T08:25:12;100099.23;;;-2.27;56.86
66742;BME280;53654;54.152;19.432;2024-01-16T08:27:40;100108.14;;;-2.21;57.06
66742;BME280;53654;54.152;19.432;2024-01-16T08:30:09;100109.66;;;-2.17;56.99
66742;BME280;53654;54.152;19.432;2024-01-16T08:32:37;100108.67;;;-2.15;56.78
66742;BME280;53654;54.152;19.432;2024-01-16T08:35:06;100112.91;;;-2.11;56.68
66742;BME280;53654;54.152;19.432;2024-01-16T08:37:35;100123.48;;;-2.07;56.80
66742;BME280;53654;54.152;19.432;2024-01-16T08:40:03;100131.39;;;-2.00;56.50
66742;BME280;53654;54.152;19.432;2024-01-16T08:42:32;100132.61;;;-1.94;56.56
66742;BME280;53654;54.152;19.432;2024-01-16T08:45:00;100133.23;;;-1.85;56.61
66742;BME280;53654;54.152;19.432;2024-01-16T08:47:29;100137.98;;;-1.81;56.57
66742;BME280;53654;54.152;19.432;2024-01-16T08:49:57;100140.71;;;-1.76;56.11
66742;BME280;53654;54.152;19.432;2024-01-16T08:52:25;100143.39;;;-1.72;56.06
66742;BME280;53654;54.152;19.432;2024-01-16T08:54:53;100147.98;;;-1.67;55.96
66742;BME280;53654;54.152;19.432;2024-01-16T08:57:22;100156.14;;;-1.63;55.81
66742;BME280;53654;54.152;19.432;2024-01-16T08:59:52;100154.05;;;-1.59;55.93
66742;BME280;53654;54.152;19.432;2024-01-16T09:02:21;100158.83;;;-1.54;55.95
66742;BME280;53654;54.152;19.432;2024-01-16T09:04:49;100160.17;;;-1.49;55.89
66742;BME280;53654;54.152;19.432;2024-01-16T09:07:18;100161.50;;;-1.45;56.04
66742;BME280;53654;54.152;19.432;2024-01-16T09:09:47;100166.92;;;-1.41;55.77
66742;BME280;53654;54.152;19.432;2024-01-16T09:12:15;100170.85;;;-1.35;55.71
66742;BME280;53654;54.152;19.432;2024-01-16T09:14:43;100177.38;;;-1.35;55.27
66742;BME280;53654;54.152;19.432;2024-01-16T09:17:12;100178.73;;;-1.35;55.34
66742;BME280;53654;54.152;19.432;2024-01-16T09:19:40;100181.67;;;-1.34;55.18
66742;BME280;53654;54.152;19.432;2024-01-16T09:22:09;100191.53;;;-1.31;54.94
66742;BME280;53654;54.152;19.432;2024-01-16T09:24:37;100193.03;;;-1.32;55.00
66742;BME280;53654;54.152;19.432;2024-01-16T09:27:06;100205.44;;;-1.29;54.90
66742;BME280;53654;54.152;19.432;2024-01-16T09:29:34;100204.61;;;-1.28;54.73
66742;BME280;53654;54.152;19.432;2024-01-16T09:32:03;100205.17;;;-1.26;55.14
66742;BME280;53654;54.152;19.432;2024-01-16T09:34:32;100200.55;;;-1.27;55.19
66742;BME280;53654;54.152;19.432;2024-01-16T09:37:00;100205.48;;;-1.28;55.22
66742;BME280;53654;54.152;19.432;2024-01-16T09:39:31;100206.61;;;-1.30;55.15
66742;BME280;53654;54.152;19.432;2024-01-16T09:41:59;100209.58;;;-1.34;55.06
66742;BME280;53654;54.152;19.432;2024-01-16T09:44:29;100211.48;;;-1.39;55.10
66742;BME280;53654;54.152;19.432;2024-01-16T09:46:57;100215.09;;;-1.44;55.31
66742;BME280;53654;54.152;19.432;2024-01-16T09:49:29;100224.16;;;-1.43;55.22
66742;BME280;53654;54.152;19.432;2024-01-16T09:51:57;100228.42;;;-1.44;55.22
66742;BME280;53654;54.152;19.432;2024-01-16T09:54:29;100235.25;;;-1.44;55.36
66742;BME280;53654;54.152;19.432;2024-01-16T09:56:58;100239.58;;;-1.43;55.33
66742;BME280;53654;54.152;19.432;2024-01-16T09:59:28;100245.20;;;-1.38;55.17
66742;BME280;53654;54.152;19.432;2024-01-16T10:01:58;100248.73;;;-1.35;55.49
66742;BME280;53654;54.152;19.432;2024-01-16T10:04:29;100251.13;;;-1.35;55.12
66742;BME280;53654;54.152;19.432;2024-01-16T10:06:58;100252.75;;;-1.32;55.24
66742;BME280;53654;54.152;19.432;2024-01-16T10:09:28;100256.80;;;-1.28;55.10
66742;BME280;53654;54.152;19.432;2024-01-16T10:11:57;100259.95;;;-1.26;54.86
66742;BME280;53654;54.152;19.432;2024-01-16T10:14:25;100266.33;;;-1.24;54.42
66742;BME280;53654;54.152;19.432;2024-01-16T10:17:04;100267.07;;;-1.23;54.42
66742;BME280;53654;54.152;19.432;2024-01-16T10:19:48;100267.27;;;-1.27;54.33
66742;BME280;53654;54.152;19.432;2024-01-16T10:22:24;100269.12;;;-1.28;54.53
66742;BME280;53654;54.152;19.432;2024-01-16T10:25:06;100270.93;;;-1.31;54.73
66742;BME280;53654;54.152;19.432;2024-01-16T10:27:40;100283.55;;;-1.26;54.95
66742;BME280;53654;54.152;19.432;2024-01-16T10:30:09;100286.20;;;-1.24;55.15
66742;BME280;53654;54.152;19.432;2024-01-16T10:32:41;100281.14;;;-1.21;54.47
66742;BME280;53654;54.152;19.432;2024-01-16T10:35:11;100285.73;;;-1.18;54.28
66742;BME280;53654;54.152;19.432;2024-01-16T10:37:48;100288.59;;;-1.14;53.90
66742;BME280;53654;54.152;19.432;2024-01-16T10:40:20;100290.08;;;-1.10;53.85
66742;BME280;53654;54.152;19.432;2024-01-16T10:43:03;100282.27;;;-1.08;53.20
66742;BME280;53654;54.152;19.432;2024-01-16T10:45:32;100280.56;;;-1.07;53.05
66742;BME280;53654;54.152;19.432;2024-01-16T10:48:02;100286.12;;;-1.05;52.87
66742;BME280;53654;54.152;19.432;2024-01-16T10:50:33;100284.98;;;-1.03;53.03
66742;BME280;53654;54.152;19.432;2024-01-16T10:53:06;100292.13;;;-0.99;52.87
66742;BME280;53654;54.152;19.432;2024-01-16T10:55:51;100290.30;;;-0.97;52.94
66742;BME280;53654;54.152;19.432;2024-01-16T10:58:22;100299.95;;;-0.94;52.49
66742;BME280;53654;54.152;19.432;2024-01-16T11:00:56;100302.76;;;-0.92;52.53
66742;BME280;53654;54.152;19.432;2024-01-16T11:03:31;100306.45;;;-0.89;52.43
66742;BME280;53654;54.152;19.432;2024-01-16T11:06:05;100310.59;;;-0.88;51.77
66742;BME280;53654;54.152;19.432;2024-01-16T11:08:37;100312.34;;;-0.87;51.55
66742;BME280;53654;54.152;19.432;2024-01-16T11:11:06;100316.86;;;-0.85;51.27
66742;BME280;53654;54.152;19.432;2024-01-16T11:13:36;100318.00;;;-0.81;51.77
66742;BME280;53654;54.152;19.432;2024-01-16T11:16:05;100320.48;;;-0.79;51.61
66742;BME280;53654;54.152;19.432;2024-01-16T11:18:35;100330.17;;;-0.75;51.43
66742;BME280;53654;54.152;19.432;2024-01-16T11:21:12;100335.65;;;-0.75;51.00
66742;BME280;53654;54.152;19.432;2024-01-16T11:23:45;100343.29;;;-0.77;51.01
66742;BME280;53654;54.152;19.432;2024-01-16T11:26:32;100349.34;;;-0.76;51.75
66742;BME280;53654;54.152;19.432;2024-01-16T11:31:56;100357.79;;;-0.74;51.62
66742;BME280;53654;54.152;19.432;2024-01-16T11:37:13;100356.91;;;-0.75;51.05
66742;BME280;53654;54.152;19.432;2024-01-16T11:39:42;100359.77;;;-0.76;51.13
66742;BME280;53654;54.152;19.432;2024-01-16T11:42:25;100367.15;;;-0.76;51.45
66742;BME280;53654;54.152;19.432;2024-01-16T11:44:55;100365.98;;;-0.81;51.91
66742;BME280;53654;54.152;19.432;2024-01-16T11:47:23;100371.15;;;-0.79;52.28
66742;BME280;53654;54.152;19.432;2024-01-16T11:50:09;100374.39;;;-0.80;52.05
66742;BME280;53654;54.152;19.432;2024-01-16T11:52:41;100381.86;;;-0.82;51.93
66742;BME280;53654;54.152;19.432;2024-01-16T11:55:26;100383.70;;;-0.83;52.02
66742;BME280;53654;54.152;19.432;2024-01-16T12:00:40;100401.91;;;-0.87;52.97
66742;BME280;53654;54.152;19.432;2024-01-16T12:03:09;100404.49;;;-0.92;53.78
66742;BME280;53654;54.152;19.432;2024-01-16T12:05:38;100409.16;;;-0.96;55.10
66742;BME280;53654;54.152;19.432;2024-01-16T12:08:06;100410.91;;;-1.00;56.90
66742;BME280;53654;54.152;19.432;2024-01-16T12:10:45;100414.41;;;-1.08;57.89
66742;BME280;53654;54.152;19.432;2024-01-16T12:13:15;100410.07;;;-1.20;58.45
66742;BME280;53654;54.152;19.432;2024-01-16T12:15:43;100407.64;;;-1.21;59.21
66742;BME280;53654;54.152;19.432;2024-01-16T12:18:18;100406.86;;;-1.24;59.40
66742;BME280;53654;54.152;19.432;2024-01-16T12:21:08;100403.39;;;-1.25;59.44
66742;BME280;53654;54.152;19.432;2024-01-16T12:23:37;100404.70;;;-1.22;59.33
66742;BME280;53654;54.152;19.432;2024-01-16T12:26:22;100403.39;;;-1.15;58.54
66742;BME280;53654;54.152;19.432;2024-01-16T12:28:54;100405.83;;;-1.09;57.61
66742;BME280;53654;54.152;19.432;2024-01-16T12:31:27;100402.54;;;-1.05;56.13
66742;BME280;53654;54.152;19.432;2024-01-16T12:34:08;100406.00;;;-0.98;55.26
66742;BME280;53654;54.152;19.432;2024-01-16T12:36:37;100405.80;;;-0.93;54.71
66742;BME280;53654;54.152;19.432;2024-01-16T12:39:06;100404.10;;;-0.88;53.59
66742;BME280;53654;54.152;19.432;2024-01-16T12:41:44;100409.25;;;-0.88;51.76
66742;BME280;53654;54.152;19.432;2024-01-16T12:44:14;100415.72;;;-0.89;50.64
66742;BME280;53654;54.152;19.432;2024-01-16T12:46:55;100412.91;;;-0.85;50.15
66742;BME280;53654;54.152;19.432;2024-01-16T12:49:27;100423.55;;;-0.85;49.16
66742;BME280;53654;54.152;19.432;2024-01-16T12:52:14;100424.81;;;-0.78;49.80
66742;BME280;53654;54.152;19.432;2024-01-16T12:54:42;100432.42;;;-0.70;49.43
66742;BME280;53654;54.152;19.432;2024-01-16T12:57:16;100432.64;;;-0.69;47.91
66742;BME280;53654;54.152;19.432;2024-01-16T12:59:45;100437.59;;;-0.69;47.05
66742;BME280;53654;54.152;19.432;2024-01-16T13:02:21;100441.89;;;-0.69;47.18
66742;BME280;53654;54.152;19.432;2024-01-16T13:05:00;100438.30;;;-0.68;47.17
66742;BME280;53654;54.152;19.432;2024-01-16T13:07:31;100443.34;;;-0.66;46.98
66742;BME280;53654;54.152;19.432;2024-01-16T13:10:11;100440.27;;;-0.66;47.38